Time;durP1;ratioP1;P1;durP2;ratioP2;P2;SDS_P1;SDS_P2;PMS_P1;PMS_P2;Temp;Humidity;BMP_temperature;BMP_pressure;BME280_temperature;BME280_humidity;BME280_pressure;Samples;Min_cycle;Max_cycle;Signal;HPM_P1;HPM_P2
2023/01/30 00:01:23;;;;;;;439.17;200.87;;;;;;;;;;5052110;28;20226;-52
2023/01/30 00:03:50;;;;;;;530.73;237.03;;;;;;;;;;5057899;28;20226;-52
2023/01/30 00:06:16;;;;;;;543.40;235.40;;;;;;;;;;5063128;28;20632;-52
2023/01/30 00:08:42;;;;;;;432.83;195.60;;;;;;;;;;5056014;28;20650;-52
2023/01/30 00:11:09;;;;;;;553.53;259.13;;;;;;;;;;5056634;28;20218;-51
2023/01/30 00:13:35;;;;;;;525.93;239.63;;;;;;;;;;5053086;28;20233;-52
2023/01/30 00:16:01;;;;;;;494.60;218.67;;;;;;;;;;5040203;28;20336;-52
2023/01/30 00:18:28;;;;;;;524.37;238.63;;;;;;;;;;5048096;28;20310;-53
2023/01/30 00:21:01;;;;;;;439.90;196.77;;;;;;;;;;5062766;28;20226;-52
2023/01/30 00:23:27;;;;;;;594.20;283.00;;;;;;;;;;5049951;28;20252;-52
2023/01/30 00:25:54;;;;;;;494.10;219.30;;;;;;;;;;5053721;28;20210;-52
2023/01/30 00:28:20;;;;;;;583.30;266.57;;;;;;;;;;5054956;28;20976;-52
2023/01/30 00:30:50;;;;;;;528.53;243.93;;;;;;;;;;5042122;28;20226;-52
2023/01/30 00:33:16;;;;;;;486.03;223.80;;;;;;;;;;5061046;28;20215;-53
2023/01/30 00:35:43;;;;;;;501.90;218.97;;;;;;;;;;5058322;28;20178;-52
2023/01/30 00:38:09;;;;;;;468.67;210.50;;;;;;;;;;5054821;28;20435;-52
2023/01/30 00:40:35;;;;;;;449.87;206.00;;;;;;;;;;5050088;28;20577;-52
2023/01/30 00:48:31;;;;;;;551.93;252.23;;;;;;;;;;5047814;28;20340;-52
2023/01/30 00:50:57;;;;;;;562.90;259.37;;;;;;;;;;5048585;28;20219;-52
2023/01/30 00:53:24;;;;;;;470.77;202.13;;;;;;;;;;5049842;28;20206;-52
2023/01/30 00:55:50;;;;;;;506.20;223.80;;;;;;;;;;5063221;28;20598;-52
2023/01/30 00:58:16;;;;;;;512.00;229.00;;;;;;;;;;5053817;28;20820;-52
2023/01/30 01:00:42;;;;;;;522.47;226.90;;;;;;;;;;5060238;28;20235;-52
2023/01/30 01:05:37;;;;;;;519.20;231.83;;;;;;;;;;4941489;28;20225;-52
2023/01/30 01:08:03;;;;;;;485.03;211.93;;;;;;;;;;4947849;28;20187;-52
2023/01/30 01:10:29;;;;;;;460.37;199.90;;;;;;;;;;4940426;28;20309;-52
2023/01/30 01:12:55;;;;;;;503.77;237.10;;;;;;;;;;4944470;28;20309;-52
2023/01/30 01:15:22;;;;;;;500.77;219.10;;;;;;;;;;4924110;28;20219;-52
2023/01/30 01:17:48;;;;;;;519.77;232.67;;;;;;;;;;4936479;28;20219;-52
2023/01/30 01:20:14;;;;;;;450.10;199.97;;;;;;;;;;4936858;28;20183;-51
2023/01/30 01:22:40;;;;;;;576.27;268.97;;;;;;;;;;4929327;28;20217;-52
2023/01/30 01:25:06;;;;;;;464.80;207.23;;;;;;;;;;4933522;28;20219;-52
2023/01/30 01:27:32;;;;;;;533.47;235.90;;;;;;;;;;4928794;28;20236;-53
2023/01/30 01:29:58;;;;;;;534.13;257.07;;;;;;;;;;4915914;28;20238;-52
2023/01/30 01:32:24;;;;;;;532.87;253.73;;;;;;;;;;4925165;28;20224;-53
2023/01/30 01:34:50;;;;;;;480.77;214.50;;;;;;;;;;4920969;28;20298;-52
2023/01/30 01:37:16;;;;;;;441.77;193.43;;;;;;;;;;4923293;28;20211;-52
2023/01/30 01:42:28;;;;;;;524.37;241.03;;;;;;;;;;4931890;28;20222;-52
2023/01/30 01:45:16;;;;;;;579.37;260.90;;;;;;;;;;4918974;28;20810;-52
2023/01/30 01:47:48;;;;;;;502.33;221.83;;;;;;;;;;4923267;28;21513;-52
2023/01/30 01:50:16;;;;;;;480.43;218.93;;;;;;;;;;4931396;28;20692;-52
2023/01/30 01:52:42;;;;;;;469.23;209.70;;;;;;;;;;4909178;28;20257;-52
2023/01/30 01:55:09;;;;;;;566.80;270.40;;;;;;;;;;4921371;28;20354;-52
2023/01/30 01:57:39;;;;;;;529.47;240.60;;;;;;;;;;4916507;28;20277;-52
2023/01/30 02:00:12;;;;;;;562.33;251.60;;;;;;;;;;4919363;28;20492;-52
2023/01/30 02:02:40;;;;;;;514.17;223.97;;;;;;;;;;4925206;28;20799;-53
2023/01/30 02:05:09;;;;;;;538.63;249.73;;;;;;;;;;4924739;28;20226;-51
2023/01/30 02:07:42;;;;;;;505.70;236.93;;;;;;;;;;4908833;28;20315;-52
2023/01/30 02:10:09;;;;;;;526.03;230.43;;;;;;;;;;4923792;28;20223;-51
2023/01/30 02:12:37;;;;;;;506.63;234.13;;;;;;;;;;4923261;28;20233;-51
2023/01/30 02:15:03;;;;;;;548.40;250.10;;;;;;;;;;4925043;28;20273;-51
2023/01/30 02:17:29;;;;;;;541.03;252.93;;;;;;;;;;4923853;28;20198;-52
2023/01/30 02:20:01;;;;;;;561.90;260.10;;;;;;;;;;4927220;28;20209;-51
2023/01/30 02:22:46;;;;;;;522.37;242.13;;;;;;;;;;4914405;28;20725;-51
2023/01/30 02:25:18;;;;;;;557.20;252.37;;;;;;;;;;4928753;28;20230;-52
2023/01/30 02:28:03;;;;;;;498.17;231.60;;;;;;;;;;4927184;28;20595;-51
2023/01/30 02:30:47;;;;;;;491.10;215.77;;;;;;;;;;4920766;28;20853;-53
2023/01/30 02:33:13;;;;;;;548.87;253.60;;;;;;;;;;4910537;28;20701;-51
2023/01/30 02:35:45;;;;;;;519.80;242.67;;;;;;;;;;4929035;28;20179;-52
2023/01/30 02:38:11;;;;;;;479.53;223.77;;;;;;;;;;4918171;28;20653;-53
2023/01/30 02:40:40;;;;;;;507.87;226.13;;;;;;;;;;4923384;28;20267;-51
2023/01/30 02:43:25;;;;;;;499.03;220.37;;;;;;;;;;4914679;28;20227;-52
2023/01/30 02:46:07;;;;;;;536.33;253.90;;;;;;;;;;4916512;28;21005;-52
2023/01/30 02:48:41;;;;;;;476.47;216.00;;;;;;;;;;4923318;28;20231;-51
2023/01/30 02:51:11;;;;;;;536.83;236.60;;;;;;;;;;4924047;28;20801;-52
2023/01/30 02:53:38;;;;;;;509.90;240.27;;;;;;;;;;4917368;28;20673;-52
2023/01/30 02:56:04;;;;;;;551.70;247.23;;;;;;;;;;4921228;28;20286;-51
2023/01/30 02:58:33;;;;;;;464.13;213.27;;;;;;;;;;4932077;28;20303;-52
2023/01/30 03:01:03;;;;;;;533.97;245.30;;;;;;;;;;4918474;28;20222;-52
2023/01/30 03:03:29;;;;;;;532.10;247.57;;;;;;;;;;4920638;28;20280;-53
2023/01/30 03:05:55;;;;;;;543.07;239.83;;;;;;;;;;4925133;28;20245;-52
2023/01/30 03:08:34;;;;;;;517.63;238.90;;;;;;;;;;4921187;28;20317;-52
2023/01/30 03:11:00;;;;;;;557.73;265.07;;;;;;;;;;4917314;28;20254;-52
2023/01/30 03:13:26;;;;;;;483.07;220.00;;;;;;;;;;4907165;28;20786;-51
2023/01/30 03:15:54;;;;;;;567.83;256.70;;;;;;;;;;4913965;28;20278;-52
2023/01/30 03:18:21;;;;;;;510.20;231.03;;;;;;;;;;4925478;28;20649;-52
2023/01/30 03:20:47;;;;;;;487.83;219.73;;;;;;;;;;4921456;28;20261;-51
2023/01/30 03:23:13;;;;;;;475.47;205.70;;;;;;;;;;4918716;28;20579;-52
2023/01/30 03:25:40;;;;;;;476.43;206.13;;;;;;;;;;4924751;28;20299;-51
2023/01/30 03:28:06;;;;;;;496.93;216.20;;;;;;;;;;4925369;28;20223;-52
2023/01/30 03:30:32;;;;;;;528.33;242.67;;;;;;;;;;4921175;28;20222;-52
2023/01/30 03:32:58;;;;;;;541.73;242.50;;;;;;;;;;4928727;28;20221;-52
2023/01/30 03:35:24;;;;;;;502.03;234.73;;;;;;;;;;4917919;28;20785;-51
2023/01/30 03:37:50;;;;;;;544.20;251.93;;;;;;;;;;4909228;28;20222;-52
2023/01/30 03:40:16;;;;;;;565.10;258.20;;;;;;;;;;4914968;28;20263;-52
2023/01/30 03:42:42;;;;;;;495.90;219.53;;;;;;;;;;4932956;28;20227;-51
2023/01/30 03:45:09;;;;;;;516.50;238.20;;;;;;;;;;4920329;28;20231;-51
2023/01/30 03:47:35;;;;;;;506.83;229.83;;;;;;;;;;4920473;28;20183;-52
2023/01/30 03:50:01;;;;;;;571.20;254.40;;;;;;;;;;4919985;28;20191;-52
2023/01/30 03:52:27;;;;;;;504.77;219.00;;;;;;;;;;4908468;28;20222;-52
2023/01/30 03:54:53;;;;;;;482.93;218.20;;;;;;;;;;4934528;28;20218;-51
2023/01/30 03:57:19;;;;;;;448.80;186.50;;;;;;;;;;4924051;28;20215;-52
2023/01/30 03:59:45;;;;;;;499.37;229.23;;;;;;;;;;4927387;28;20830;-52
2023/01/30 04:02:11;;;;;;;483.17;209.87;;;;;;;;;;4925233;28;20201;-52
2023/01/30 04:04:37;;;;;;;483.43;211.07;;;;;;;;;;4929189;28;20286;-52
2023/01/30 04:07:03;;;;;;;524.87;225.20;;;;;;;;;;4939587;28;20369;-51
2023/01/30 04:09:29;;;;;;;483.93;216.13;;;;;;;;;;4933187;28;20824;-51
2023/01/30 04:11:55;;;;;;;522.47;230.37;;;;;;;;;;4925929;28;20440;-52
2023/01/30 04:14:21;;;;;;;502.93;215.00;;;;;;;;;;4910008;28;20303;-52
2023/01/30 04:16:47;;;;;;;494.00;210.70;;;;;;;;;;4920349;28;21014;-51
2023/01/30 04:19:13;;;;;;;502.07;220.93;;;;;;;;;;4926099;28;20227;-52
2023/01/30 04:21:38;;;;;;;488.17;230.00;;;;;;;;;;4918190;28;20223;-53
2023/01/30 04:24:05;;;;;;;549.23;249.80;;;;;;;;;;4908331;28;20280;-52
2023/01/30 04:26:31;;;;;;;481.87;210.03;;;;;;;;;;4925187;28;20696;-52
2023/01/30 04:28:57;;;;;;;561.93;258.40;;;;;;;;;;4920984;28;20539;-51
2023/01/30 04:31:23;;;;;;;496.67;220.13;;;;;;;;;;4923102;28;20237;-50
2023/01/30 04:33:49;;;;;;;537.43;240.67;;;;;;;;;;4918633;28;20222;-51
2023/01/30 04:36:15;;;;;;;486.17;241.07;;;;;;;;;;4923575;28;20218;-54
2023/01/30 04:38:41;;;;;;;508.17;242.00;;;;;;;;;;4919563;28;20184;-53
2023/01/30 04:41:07;;;;;;;469.07;212.20;;;;;;;;;;4930772;28;20377;-53
2023/01/30 04:43:33;;;;;;;515.63;242.83;;;;;;;;;;4917675;28;20246;-53
2023/01/30 04:45:59;;;;;;;530.50;267.60;;;;;;;;;;4927219;28;20305;-55
2023/01/30 04:48:25;;;;;;;451.93;226.70;;;;;;;;;;4924398;28;20352;-52
2023/01/30 04:50:52;;;;;;;572.57;287.37;;;;;;;;;;4915621;28;20234;-52
2023/01/30 04:53:19;;;;;;;494.60;241.10;;;;;;;;;;4922974;28;20596;-53
2023/01/30 04:55:45;;;;;;;446.30;222.00;;;;;;;;;;4910741;28;20339;-54
2023/01/30 04:58:11;;;;;;;480.27;232.73;;;;;;;;;;4930692;28;20440;-53
2023/01/30 05:00:38;;;;;;;531.40;260.63;;;;;;;;;;4930071;28;20736;-54
2023/01/30 05:03:05;;;;;;;526.83;246.07;;;;;;;;;;4909731;28;20685;-53
2023/01/30 05:05:31;;;;;;;482.90;228.83;;;;;;;;;;4910121;28;20195;-52
2023/01/30 05:07:57;;;;;;;457.10;221.33;;;;;;;;;;4916134;28;20613;-52
2023/01/30 05:10:23;;;;;;;462.93;217.27;;;;;;;;;;4927343;28;20228;-51
2023/01/30 05:12:49;;;;;;;502.63;248.00;;;;;;;;;;4932919;28;20219;-53
2023/01/30 05:15:15;;;;;;;511.03;260.93;;;;;;;;;;4929680;28;20519;-53
2023/01/30 05:17:41;;;;;;;490.33;235.83;;;;;;;;;;4925561;28;20202;-53
2023/01/30 05:20:09;;;;;;;509.33;259.63;;;;;;;;;;4931147;28;20553;-53
2023/01/30 05:22:35;;;;;;;557.23;290.70;;;;;;;;;;4933123;28;20324;-53
2023/01/30 05:25:01;;;;;;;487.10;231.27;;;;;;;;;;4918676;28;20217;-55
2023/01/30 05:27:27;;;;;;;471.63;226.57;;;;;;;;;;4936701;28;20548;-54
2023/01/30 05:29:54;;;;;;;491.70;235.37;;;;;;;;;;4934795;28;20219;-53
2023/01/30 05:32:20;;;;;;;503.27;248.20;;;;;;;;;;4924029;28;20249;-51
2023/01/30 05:34:48;;;;;;;555.27;275.30;;;;;;;;;;4919030;28;20255;-52
2023/01/30 05:37:14;;;;;;;448.47;213.93;;;;;;;;;;4923436;28;20269;-53
2023/01/30 05:39:40;;;;;;;494.20;238.40;;;;;;;;;;4914473;28;20633;-52
2023/01/30 05:42:06;;;;;;;457.43;220.03;;;;;;;;;;4925260;28;20221;-51
2023/01/30 05:44:32;;;;;;;487.47;248.03;;;;;;;;;;4917835;28;20215;-53
2023/01/30 05:46:58;;;;;;;526.97;261.10;;;;;;;;;;4921287;28;20413;-53
2023/01/30 05:49:24;;;;;;;471.67;226.40;;;;;;;;;;4924712;28;21076;-53
2023/01/30 05:51:50;;;;;;;479.93;234.83;;;;;;;;;;4908394;28;20594;-51
2023/01/30 05:54:16;;;;;;;503.77;247.40;;;;;;;;;;4923762;28;20225;-51
2023/01/30 05:56:42;;;;;;;544.63;279.43;;;;;;;;;;4908385;28;20199;-54
2023/01/30 05:59:10;;;;;;;530.93;242.50;;;;;;;;;;4913923;28;20194;-53
2023/01/30 06:01:36;;;;;;;544.77;266.63;;;;;;;;;;4926912;28;20264;-53
2023/01/30 06:04:02;;;;;;;483.53;237.57;;;;;;;;;;4934446;28;20276;-53
2023/01/30 06:06:28;;;;;;;505.63;252.70;;;;;;;;;;4935348;28;20298;-52
2023/01/30 06:08:55;;;;;;;518.50;259.70;;;;;;;;;;4907795;28;20229;-53
2023/01/30 06:11:21;;;;;;;507.37;253.27;;;;;;;;;;4918973;28;20242;-53
2023/01/30 06:13:47;;;;;;;468.43;215.83;;;;;;;;;;4906027;28;20245;-53
2023/01/30 06:16:14;;;;;;;482.53;235.67;;;;;;;;;;4925054;28;20447;-53
2023/01/30 06:18:40;;;;;;;509.07;263.63;;;;;;;;;;4911070;28;20280;-52
2023/01/30 06:21:07;;;;;;;475.20;233.33;;;;;;;;;;4924612;28;20601;-54
2023/01/30 06:23:33;;;;;;;525.23;258.53;;;;;;;;;;4892836;28;20265;-52
2023/01/30 06:25:59;;;;;;;539.37;256.63;;;;;;;;;;4903826;28;20288;-54
2023/01/30 06:28:26;;;;;;;527.30;263.87;;;;;;;;;;4909844;28;20231;-53
2023/01/30 06:30:53;;;;;;;529.27;263.67;;;;;;;;;;4903019;28;20230;-53
2023/01/30 06:33:19;;;;;;;505.50;250.83;;;;;;;;;;4918013;28;20211;-51
2023/01/30 06:35:45;;;;;;;544.20;275.00;;;;;;;;;;4903221;28;20240;-52
2023/01/30 06:38:13;;;;;;;487.43;248.77;;;;;;;;;;4903420;28;20198;-53
2023/01/30 06:40:39;;;;;;;539.77;268.83;;;;;;;;;;4919352;28;20275;-55
2023/01/30 06:43:05;;;;;;;447.63;217.60;;;;;;;;;;4903151;28;20277;-52
2023/01/30 06:45:31;;;;;;;485.43;248.37;;;;;;;;;;4908448;28;20218;-54
2023/01/30 06:47:57;;;;;;;597.60;323.93;;;;;;;;;;4944804;28;20230;-52
2023/01/30 06:50:25;;;;;;;489.90;235.40;;;;;;;;;;4925943;28;20664;-52
2023/01/30 06:52:51;;;;;;;497.73;254.33;;;;;;;;;;4930904;28;20218;-52
2023/01/30 06:55:19;;;;;;;497.23;247.07;;;;;;;;;;4939836;28;20222;-54
2023/01/30 06:57:46;;;;;;;509.67;257.10;;;;;;;;;;4923299;28;20296;-52
2023/01/30 07:00:14;;;;;;;515.47;252.97;;;;;;;;;;4904256;28;20456;-51
2023/01/30 07:02:40;;;;;;;537.50;267.10;;;;;;;;;;4915550;28;20298;-52
2023/01/30 07:05:07;;;;;;;598.90;323.37;;;;;;;;;;4956316;23;20313;-50
2023/01/30 07:07:33;;;;;;;555.63;289.30;;;;;;;;;;4950192;28;20261;-48
2023/01/30 07:09:59;;;;;;;541.50;274.90;;;;;;;;;;4957543;28;20222;-50
2023/01/30 07:12:26;;;;;;;556.17;300.50;;;;;;;;;;4979405;28;20218;-50
2023/01/30 07:14:52;;;;;;;555.10;298.13;;;;;;;;;;4945530;28;20229;-49
2023/01/30 07:17:19;;;;;;;622.33;335.47;;;;;;;;;;4974345;28;20274;-48
2023/01/30 07:19:45;;;;;;;620.03;354.10;;;;;;;;;;4978081;28;20328;-49
2023/01/30 07:22:11;;;;;;;567.03;298.70;;;;;;;;;;4961692;28;20681;-49
2023/01/30 07:24:38;;;;;;;565.23;298.03;;;;;;;;;;4995992;28;20325;-49
2023/01/30 07:27:06;;;;;;;623.70;344.80;;;;;;;;;;4987856;28;20906;-48
2023/01/30 07:29:32;;;;;;;549.37;295.97;;;;;;;;;;4954175;28;20275;-48
2023/01/30 07:31:57;;;;;;;568.90;298.63;;;;;;;;;;4951923;28;20526;-48
2023/01/30 07:34:23;;;;;;;549.23;287.97;;;;;;;;;;4968020;28;20685;-48
2023/01/30 07:36:49;;;;;;;579.80;304.90;;;;;;;;;;4975572;28;20223;-49
2023/01/30 07:39:15;;;;;;;541.67;290.97;;;;;;;;;;4966369;28;20242;-49
2023/01/30 07:41:41;;;;;;;558.30;278.07;;;;;;;;;;4973326;28;20187;-49
2023/01/30 07:44:08;;;;;;;533.47;272.73;;;;;;;;;;4985537;28;20274;-50
2023/01/30 07:46:34;;;;;;;442.77;224.47;;;;;;;;;;4938173;28;20792;-50
2023/01/30 07:49:04;;;;;;;532.57;274.83;;;;;;;;;;4964550;28;20218;-49
2023/01/30 07:51:30;;;;;;;528.00;284.60;;;;;;;;;;5009916;28;20285;-48
2023/01/30 07:53:56;;;;;;;533.90;279.90;;;;;;;;;;5006786;28;20226;-49
2023/01/30 07:56:22;;;;;;;610.77;319.17;;;;;;;;;;4971397;28;20195;-49
2023/01/30 07:58:48;;;;;;;509.17;266.03;;;;;;;;;;5024372;28;20206;-49
2023/01/30 08:01:15;;;;;;;532.93;273.60;;;;;;;;;;4958562;28;20221;-49
2023/01/30 08:03:42;;;;;;;511.33;258.73;;;;;;;;;;4972280;28;20529;-49
2023/01/30 08:06:08;;;;;;;494.57;257.33;;;;;;;;;;5012673;28;20604;-49
2023/01/30 08:08:34;;;;;;;532.07;267.67;;;;;;;;;;4996037;28;20321;-48
2023/01/30 08:11:00;;;;;;;490.43;263.90;;;;;;;;;;5035022;28;20635;-49
2023/01/30 08:13:26;;;;;;;496.90;265.90;;;;;;;;;;5023061;28;20219;-49
2023/01/30 08:15:52;;;;;;;514.00;263.23;;;;;;;;;;5026571;28;20225;-48
2023/01/30 08:18:18;;;;;;;526.37;272.97;;;;;;;;;;5014024;28;20377;-49
2023/01/30 08:20:45;;;;;;;504.67;264.10;;;;;;;;;;5000835;28;20218;-49
2023/01/30 08:23:10;;;;;;;544.27;292.93;;;;;;;;;;4995835;28;20193;-48
2023/01/30 08:25:36;;;;;;;504.53;265.47;;;;;;;;;;4993572;28;20630;-48
2023/01/30 08:28:03;;;;;;;530.30;271.63;;;;;;;;;;5005609;28;20724;-49
2023/01/30 08:30:29;;;;;;;480.37;248.33;;;;;;;;;;4987677;28;20364;-49
2023/01/30 08:32:55;;;;;;;503.20;264.97;;;;;;;;;;4996090;28;20705;-49
2023/01/30 08:35:21;;;;;;;530.13;286.80;;;;;;;;;;4986452;28;20665;-49
2023/01/30 08:37:47;;;;;;;495.77;260.10;;;;;;;;;;5008385;28;21707;-49
2023/01/30 08:40:14;;;;;;;511.13;264.90;;;;;;;;;;5025063;28;20273;-48
2023/01/30 08:42:40;;;;;;;462.73;238.10;;;;;;;;;;4988886;28;20222;-49
2023/01/30 08:45:06;;;;;;;564.00;308.20;;;;;;;;;;4999611;28;20274;-48
2023/01/30 08:47:34;;;;;;;499.57;258.57;;;;;;;;;;5021695;28;20190;-49
2023/01/30 08:50:00;;;;;;;492.17;257.20;;;;;;;;;;4992452;28;20190;-49
2023/01/30 08:52:26;;;;;;;516.37;270.43;;;;;;;;;;4976149;28;20683;-49
2023/01/30 08:54:52;;;;;;;462.17;232.83;;;;;;;;;;5009350;28;20226;-49
2023/01/30 08:57:18;;;;;;;502.10;259.63;;;;;;;;;;5014042;28;20239;-50
2023/01/30 08:59:44;;;;;;;562.33;302.33;;;;;;;;;;4995873;28;20266;-50
2023/01/30 09:02:11;;;;;;;517.20;268.63;;;;;;;;;;4990519;28;20581;-49
2023/01/30 09:04:37;;;;;;;532.33;289.67;;;;;;;;;;5003099;28;20252;-49
2023/01/30 09:07:03;;;;;;;518.50;272.83;;;;;;;;;;4994254;28;20272;-50
2023/01/30 09:09:29;;;;;;;513.63;264.67;;;;;;;;;;4980285;28;20360;-49
2023/01/30 09:11:55;;;;;;;516.53;270.37;;;;;;;;;;5010008;28;20243;-49
2023/01/30 09:14:22;;;;;;;493.57;252.17;;;;;;;;;;5031484;28;20739;-49
2023/01/30 09:16:54;;;;;;;554.60;293.37;;;;;;;;;;4987579;28;20336;-48
2023/01/30 09:19:20;;;;;;;566.90;293.23;;;;;;;;;;4987556;28;20387;-48
2023/01/30 09:21:48;;;;;;;550.50;277.27;;;;;;;;;;4982529;28;20291;-48
2023/01/30 09:24:14;;;;;;;557.40;289.23;;;;;;;;;;4993692;28;20275;-49
2023/01/30 09:26:43;;;;;;;573.83;308.17;;;;;;;;;;4996478;28;20199;-48
2023/01/30 09:29:09;;;;;;;599.60;328.40;;;;;;;;;;5009223;28;20387;-48
2023/01/30 09:31:35;;;;;;;615.03;327.30;;;;;;;;;;4946787;28;20249;-49
2023/01/30 09:34:01;;;;;;;546.80;284.57;;;;;;;;;;4951546;28;20567;-48
2023/01/30 09:36:27;;;;;;;554.17;282.20;;;;;;;;;;4959186;28;20222;-48
2023/01/30 09:38:53;;;;;;;558.73;297.10;;;;;;;;;;4979530;28;20558;-48
2023/01/30 09:41:37;;;;;;;595.00;319.73;;;;;;;;;;4972406;28;20187;-49
2023/01/30 09:44:14;;;;;;;572.90;300.70;;;;;;;;;;4956915;28;20739;-49
2023/01/30 09:46:40;;;;;;;571.23;296.00;;;;;;;;;;4995813;28;20233;-49
2023/01/30 09:49:18;;;;;;;605.73;326.43;;;;;;;;;;4947729;28;20581;-48
2023/01/30 09:51:51;;;;;;;629.83;341.47;;;;;;;;;;4951752;28;20777;-47
2023/01/30 09:54:19;;;;;;;607.13;331.27;;;;;;;;;;4975954;28;20214;-48
2023/01/30 09:56:45;;;;;;;542.40;278.90;;;;;;;;;;4965125;28;20640;-48
2023/01/30 09:59:19;;;;;;;515.20;263.37;;;;;;;;;;5018138;28;20251;-48
2023/01/30 10:01:53;;;;;;;537.73;280.70;;;;;;;;;;4986180;28;20710;-48
2023/01/30 10:04:24;;;;;;;492.53;260.37;;;;;;;;;;4982013;28;22725;-48
2023/01/30 10:07:16;;;;;;;503.40;261.77;;;;;;;;;;5018608;28;20380;-50
2023/01/30 10:09:59;;;;;;;569.10;305.27;;;;;;;;;;4996082;28;20290;-48
2023/01/30 10:12:28;;;;;;;499.87;257.17;;;;;;;;;;4987798;28;20254;-48
2023/01/30 10:15:03;;;;;;;509.93;273.17;;;;;;;;;;5017921;28;20372;-48
2023/01/30 10:17:47;;;;;;;494.77;260.53;;;;;;;;;;4991015;28;20318;-49
2023/01/30 10:20:24;;;;;;;549.87;298.90;;;;;;;;;;4947255;28;20318;-48
2023/01/30 10:23:09;;;;;;;608.80;324.27;;;;;;;;;;4975405;28;20801;-49
2023/01/30 10:25:42;;;;;;;518.40;277.87;;;;;;;;;;4975486;28;20266;-48
2023/01/30 10:28:29;;;;;;;520.40;274.40;;;;;;;;;;4956910;28;20301;-49
2023/01/30 10:31:15;;;;;;;559.37;300.47;;;;;;;;;;4955272;28;20334;-49
2023/01/30 10:33:44;;;;;;;563.47;300.90;;;;;;;;;;4954102;28;20321;-49
2023/01/30 10:36:15;;;;;;;496.67;242.80;;;;;;;;;;4995461;28;20276;-48
2023/01/30 10:38:46;;;;;;;480.73;240.87;;;;;;;;;;4987738;28;20628;-49
2023/01/30 10:41:19;;;;;;;573.50;310.70;;;;;;;;;;5015357;28;20285;-49
2023/01/30 10:43:49;;;;;;;554.57;291.87;;;;;;;;;;4986851;28;20360;-48
2023/01/30 10:46:24;;;;;;;525.60;281.70;;;;;;;;;;4967521;28;20218;-49
2023/01/30 10:49:08;;;;;;;482.03;255.93;;;;;;;;;;4948658;28;20237;-48
2023/01/30 10:51:53;;;;;;;504.90;265.00;;;;;;;;;;4959645;28;20677;-49
2023/01/30 10:54:22;;;;;;;550.33;298.03;;;;;;;;;;4949443;28;20833;-50
2023/01/30 10:56:51;;;;;;;553.80;307.30;;;;;;;;;;4955754;28;20938;-49
2023/01/30 10:59:37;;;;;;;493.23;258.80;;;;;;;;;;4990421;28;20661;-49
2023/01/30 11:02:21;;;;;;;541.30;289.37;;;;;;;;;;4967909;28;20219;-49
2023/01/30 11:05:02;;;;;;;540.47;279.77;;;;;;;;;;4953761;28;20353;-49
2023/01/30 11:07:30;;;;;;;539.53;281.57;;;;;;;;;;4950922;28;20257;-48
2023/01/30 11:09:56;;;;;;;541.27;289.07;;;;;;;;;;4943785;28;21379;-49
2023/01/30 11:12:22;;;;;;;505.07;250.80;;;;;;;;;;4958088;28;20242;-49
2023/01/30 11:14:52;;;;;;;517.60;269.30;;;;;;;;;;4958148;28;20241;-49
2023/01/30 11:17:18;;;;;;;526.10;277.83;;;;;;;;;;4971352;28;20301;-48
2023/01/30 11:19:44;;;;;;;532.07;283.20;;;;;;;;;;4985412;28;20218;-48
2023/01/30 11:22:13;;;;;;;563.17;298.20;;;;;;;;;;4970081;28;20226;-48
2023/01/30 11:24:40;;;;;;;537.63;290.40;;;;;;;;;;4947328;28;21992;-48
2023/01/30 11:27:18;;;;;;;558.83;299.63;;;;;;;;;;4967490;28;20223;-49
2023/01/30 11:29:44;;;;;;;499.50;245.57;;;;;;;;;;4994262;28;20232;-49
2023/01/30 11:32:22;;;;;;;492.93;246.97;;;;;;;;;;4965928;28;20699;-49
2023/01/30 11:35:01;;;;;;;553.50;300.30;;;;;;;;;;4988951;28;20221;-48
2023/01/30 11:37:31;;;;;;;512.13;265.57;;;;;;;;;;4953097;28;20379;-48
2023/01/30 11:39:57;;;;;;;559.77;320.37;;;;;;;;;;4941559;28;20264;-49
2023/01/30 11:42:30;;;;;;;535.97;283.33;;;;;;;;;;4941164;28;20243;-49
2023/01/30 11:44:58;;;;;;;539.30;294.47;;;;;;;;;;4981196;28;20256;-52
2023/01/30 11:47:26;;;;;;;529.83;287.50;;;;;;;;;;4957517;28;20313;-52
2023/01/30 11:49:55;;;;;;;557.07;311.00;;;;;;;;;;4977420;28;20783;-53
2023/01/30 11:52:29;;;;;;;544.40;289.70;;;;;;;;;;4942803;28;21064;-48
2023/01/30 11:55:04;;;;;;;516.13;271.83;;;;;;;;;;4945770;28;20773;-49
2023/01/30 11:57:38;;;;;;;556.83;304.73;;;;;;;;;;4994291;28;20279;-49
2023/01/30 12:00:04;;;;;;;544.80;294.10;;;;;;;;;;4936867;28;20218;-48
2023/01/30 12:02:32;;;;;;;564.83;301.20;;;;;;;;;;4969676;28;20194;-49
2023/01/30 12:05:24;;;;;;;526.87;275.10;;;;;;;;;;4949268;28;20222;-49
2023/01/30 12:07:51;;;;;;;627.07;347.93;;;;;;;;;;4989609;28;20305;-48
2023/01/30 12:10:23;;;;;;;568.27;297.50;;;;;;;;;;4980378;28;20230;-48
2023/01/30 12:12:51;;;;;;;574.13;306.70;;;;;;;;;;4940135;28;20317;-49
2023/01/30 12:15:17;;;;;;;565.57;299.23;;;;;;;;;;4951571;28;20776;-49
2023/01/30 12:17:50;;;;;;;568.80;306.13;;;;;;;;;;4973644;28;20205;-49
2023/01/30 12:20:34;;;;;;;579.63;312.90;;;;;;;;;;4939085;28;20624;-49
2023/01/30 12:23:05;;;;;;;592.70;318.10;;;;;;;;;;4932786;28;20390;-49
2023/01/30 12:25:43;;;;;;;516.63;277.30;;;;;;;;;;4994824;28;20226;-49
2023/01/30 12:28:18;;;;;;;547.37;285.67;;;;;;;;;;4965989;28;20211;-49
2023/01/30 12:30:56;;;;;;;522.23;284.23;;;;;;;;;;4982124;28;20297;-49
2023/01/30 12:33:26;;;;;;;523.27;281.77;;;;;;;;;;4943828;28;20749;-48
2023/01/30 12:36:00;;;;;;;552.37;298.77;;;;;;;;;;4939743;28;20721;-49
2023/01/30 12:38:40;;;;;;;501.33;266.63;;;;;;;;;;4941848;28;20186;-49
2023/01/30 12:41:06;;;;;;;488.17;264.53;;;;;;;;;;4958516;28;20681;-49
2023/01/30 12:43:35;;;;;;;491.07;254.77;;;;;;;;;;5000508;28;20363;-49
2023/01/30 12:46:05;;;;;;;508.27;270.93;;;;;;;;;;5020518;28;20278;-48
2023/01/30 12:48:57;;;;;;;504.37;265.00;;;;;;;;;;4957100;28;20483;-49
2023/01/30 12:51:38;;;;;;;512.53;270.13;;;;;;;;;;4946536;28;20226;-49
2023/01/30 12:54:19;;;;;;;507.23;266.67;;;;;;;;;;4950209;28;20604;-48
2023/01/30 12:56:51;;;;;;;479.37;247.37;;;;;;;;;;4956360;28;20175;-49
2023/01/30 12:59:17;;;;;;;517.87;280.80;;;;;;;;;;4949166;28;20210;-49
2023/01/30 13:01:49;;;;;;;522.80;279.90;;;;;;;;;;4960063;28;20222;-49
2023/01/30 13:04:24;;;;;;;565.53;264.00;;;;;;;;;;5014862;23;21366;-49
2023/01/30 13:07:00;;;;;;;518.30;229.30;;;;;;;;;;4971617;28;20213;-50
2023/01/30 13:09:44;;;;;;;469.23;212.00;;;;;;;;;;4956279;28;20221;-49
2023/01/30 13:12:13;;;;;;;481.20;226.03;;;;;;;;;;4966387;28;22207;-49
2023/01/30 13:14:52;;;;;;;515.10;240.30;;;;;;;;;;4970306;28;20583;-49
2023/01/30 13:17:24;;;;;;;543.90;262.03;;;;;;;;;;4975744;28;20185;-49
2023/01/30 13:19:57;;;;;;;506.83;241.70;;;;;;;;;;4972600;28;20312;-49
2023/01/30 13:22:41;;;;;;;453.07;215.33;;;;;;;;;;4957359;28;21339;-49
2023/01/30 13:25:08;;;;;;;491.07;238.77;;;;;;;;;;4981282;28;20374;-50
2023/01/30 13:27:36;;;;;;;586.30;284.57;;;;;;;;;;4959457;28;20695;-49
2023/01/30 13:30:04;;;;;;;554.20;243.83;;;;;;;;;;5005962;28;20300;-49
2023/01/30 13:32:35;;;;;;;572.73;254.57;;;;;;;;;;5022651;28;20228;-49
2023/01/30 13:35:04;;;;;;;646.03;299.27;;;;;;;;;;4976164;28;20751;-49
2023/01/30 13:37:31;;;;;;;613.37;299.77;;;;;;;;;;4963814;28;20525;-49
2023/01/30 13:39:59;;;;;;;609.97;292.50;;;;;;;;;;4984923;28;20335;-49
2023/01/30 13:42:31;;;;;;;605.07;293.83;;;;;;;;;;4981972;28;20218;-49
2023/01/30 13:44:59;;;;;;;584.17;273.33;;;;;;;;;;4960166;28;20211;-49
2023/01/30 13:47:44;;;;;;;590.17;273.13;;;;;;;;;;4959268;28;20331;-49
2023/01/30 13:50:30;;;;;;;559.97;253.20;;;;;;;;;;4985120;28;20308;-49
2023/01/30 13:52:59;;;;;;;558.97;257.50;;;;;;;;;;4993545;28;20580;-49
2023/01/30 13:55:46;;;;;;;519.00;243.57;;;;;;;;;;4993273;28;20453;-49
2023/01/30 13:58:12;;;;;;;607.00;279.23;;;;;;;;;;5001669;28;20515;-50
2023/01/30 14:00:39;;;;;;;508.37;229.23;;;;;;;;;;4958171;28;20214;-49
2023/01/30 14:03:06;;;;;;;588.23;275.27;;;;;;;;;;4985631;28;20735;-49
2023/01/30 14:05:56;;;;;;;599.73;283.03;;;;;;;;;;4977464;28;20232;-49
2023/01/30 14:08:45;;;;;;;559.03;260.70;;;;;;;;;;4986057;28;20537;-49
2023/01/30 14:11:30;;;;;;;570.50;259.23;;;;;;;;;;4961528;28;20229;-49
2023/01/30 14:14:00;;;;;;;564.97;268.70;;;;;;;;;;4963329;28;20290;-49